Time;durP1;ratioP1;P1;durP2;ratioP2;P2;SDS_P1;SDS_P2;PMS_P1;PMS_P2;Temp;Humidity;BMP_temperature;BMP_pressure;BME280_temperature;BME280_humidity;BME280_pressure;Samples;Min_cycle;Max_cycle;Signal;HPM_P1;HPM_P2
2022/04/23 00:01:17;;;;;;;7.28;6.57;;;11.70;99.90;;;;;;5014424;28;20054;-72
2022/04/23 00:03:43;;;;;;;8.70;6.82;;;11.70;99.90;;;;;;5015153;28;20101;-73
2022/04/23 00:06:09;;;;;;;7.32;6.63;;;11.70;99.90;;;;;;5014753;28;20026;-73
2022/04/23 00:08:34;;;;;;;8.35;7.55;;;11.60;99.90;;;;;;5014230;28;20116;-73
2022/04/23 00:11:00;;;;;;;8.50;7.70;;;11.60;99.90;;;;;;5014528;28;20429;-73
2022/04/23 00:13:26;;;;;;;13.10;7.60;;;11.70;99.90;;;;;;5013898;28;20029;-72
2022/04/23 00:15:53;;;;;;;12.23;6.85;;;11.60;99.90;;;;;;5014637;28;20026;-72
2022/04/23 00:18:19;;;;;;;8.18;7.38;;;11.60;99.90;;;;;;5014822;28;20079;-72
2022/04/23 00:20:47;;;;;;;10.52;7.15;;;11.60;99.90;;;;;;5014139;28;20144;-72
2022/04/23 00:23:14;;;;;;;8.05;7.32;;;11.60;99.90;;;;;;5015248;28;20022;-74
2022/04/23 00:25:40;;;;;;;11.40;7.65;;;11.60;99.90;;;;;;5014632;28;20034;-73
2022/04/23 00:28:06;;;;;;;8.18;7.47;;;11.50;99.90;;;;;;5012197;28;20022;-72
2022/04/23 00:30:33;;;;;;;9.93;8.23;;;11.50;99.90;;;;;;5014615;28;20033;-73
2022/04/23 00:33:03;;;;;;;9.43;8.50;;;11.50;99.90;;;;;;5014385;28;20069;-74
2022/04/23 00:35:32;;;;;;;10.13;7.82;;;11.50;99.90;;;;;;5014295;28;20029;-73
2022/04/23 00:37:57;;;;;;;8.27;7.45;;;11.50;99.90;;;;;;5014577;28;20036;-73
2022/04/23 00:40:24;;;;;;;10.45;7.82;;;11.50;99.90;;;;;;5015875;28;20022;-73
2022/04/23 00:42:58;;;;;;;13.45;9.18;;;11.50;99.90;;;;;;5015776;28;20034;-73
2022/04/23 00:45:26;;;;;;;9.18;8.25;;;11.50;99.90;;;;;;5014673;28;20076;-73
2022/04/23 00:47:52;;;;;;;10.00;9.02;;;11.40;99.90;;;;;;5013916;28;20030;-72
2022/04/23 00:50:21;;;;;;;10.25;8.73;;;11.50;99.90;;;;;;5013419;28;20060;-72
2022/04/23 00:52:52;;;;;;;14.32;8.32;;;11.40;99.90;;;;;;5013950;28;20080;-72
2022/04/23 00:55:18;;;;;;;12.77;8.90;;;11.40;99.90;;;;;;5013748;28;20042;-71
2022/04/23 00:57:44;;;;;;;9.00;8.10;;;11.40;99.90;;;;;;5013413;28;20029;-72
2022/04/23 01:00:11;;;;;;;9.98;8.95;;;11.40;99.90;;;;;;5013453;28;20030;-72
2022/04/23 01:02:37;;;;;;;12.68;9.07;;;11.30;99.90;;;;;;5012927;28;20052;-72
2022/04/23 01:05:08;;;;;;;10.73;9.43;;;11.30;99.90;;;;;;5013465;28;20033;-72
2022/04/23 01:07:40;;;;;;;10.07;9.15;;;11.30;99.90;;;;;;5013644;28;20508;-72
2022/04/23 01:10:06;;;;;;;9.38;8.48;;;11.30;99.90;;;;;;5012870;28;20115;-72
2022/04/23 01:12:33;;;;;;;9.63;8.68;;;11.30;99.90;;;;;;5013687;28;20038;-72
2022/04/23 01:15:01;;;;;;;13.02;9.63;;;11.30;99.90;;;;;;5013639;28;20037;-72
2022/04/23 01:17:27;;;;;;;12.95;9.05;;;11.30;99.90;;;;;;5012866;28;20022;-75
2022/04/23 01:19:53;;;;;;;11.18;10.13;;;11.20;99.90;;;;;;5013258;28;20378;-73
2022/04/23 01:22:19;;;;;;;10.77;9.68;;;11.30;99.90;;;;;;5013637;28;20033;-73
2022/04/23 01:24:44;;;;;;;13.27;10.60;;;11.30;99.90;;;;;;5013201;28;20549;-73
2022/04/23 01:27:12;;;;;;;11.50;9.68;;;11.20;99.90;;;;;;5013241;28;20377;-73
2022/04/23 01:29:38;;;;;;;11.75;9.65;;;11.20;99.90;;;;;;5013211;28;20497;-73
2022/04/23 01:32:05;;;;;;;14.10;10.30;;;11.20;99.90;;;;;;5012356;28;20110;-72
2022/04/23 01:34:30;;;;;;;10.43;9.38;;;11.20;99.90;;;;;;5013159;28;20117;-72
2022/04/23 01:36:56;;;;;;;13.00;10.70;;;11.10;99.90;;;;;;5012874;28;20101;-73
2022/04/23 01:39:22;;;;;;;13.55;10.82;;;11.10;99.90;;;;;;5012709;28;20450;-72
2022/04/23 01:41:47;;;;;;;13.32;10.25;;;11.00;99.90;;;;;;5013155;28;20084;-73
2022/04/23 01:44:14;;;;;;;12.40;10.75;;;11.00;99.90;;;;;;5013249;28;20022;-72
2022/04/23 01:46:40;;;;;;;13.32;11.73;;;11.00;99.90;;;;;;5012562;28;20060;-73
2022/04/23 01:49:05;;;;;;;13.35;11.40;;;11.00;99.90;;;;;;5012643;28;20058;-73
2022/04/23 01:51:31;;;;;;;13.10;10.93;;;10.90;99.90;;;;;;5012923;28;20492;-73
2022/04/23 01:53:56;;;;;;;12.27;10.90;;;10.90;99.90;;;;;;5012190;28;20030;-73
2022/04/23 01:56:22;;;;;;;13.13;10.18;;;10.90;99.90;;;;;;5012627;28;20037;-73
2022/04/23 01:58:47;;;;;;;12.18;10.90;;;10.90;99.90;;;;;;5012722;28;20474;-73
2022/04/23 02:01:13;;;;;;;12.27;10.85;;;10.90;99.90;;;;;;5012221;28;20428;-73
2022/04/23 02:03:39;;;;;;;12.57;11.38;;;10.90;99.90;;;;;;5012860;28;20053;-73
2022/04/23 02:06:04;;;;;;;17.88;11.52;;;10.80;99.90;;;;;;5012213;28;20034;-73
2022/04/23 02:08:30;;;;;;;14.48;11.20;;;10.90;99.90;;;;;;5012570;28;20040;-73
2022/04/23 02:10:56;;;;;;;14.15;12.25;;;10.90;99.90;;;;;;5012598;28;20061;-73
2022/04/23 02:13:21;;;;;;;16.08;12.48;;;10.90;99.90;;;;;;5011193;28;20383;-73
2022/04/23 02:15:47;;;;;;;14.35;12.30;;;10.90;99.90;;;;;;5013017;28;20034;-73
2022/04/23 02:18:13;;;;;;;15.85;12.63;;;10.80;99.90;;;;;;5012784;28;20025;-72
2022/04/23 02:20:39;;;;;;;15.07;12.35;;;10.80;99.90;;;;;;5011219;28;20037;-73
2022/04/23 02:23:06;;;;;;;14.10;12.32;;;10.70;99.90;;;;;;5012417;28;20030;-73
2022/04/23 02:25:35;;;;;;;13.70;12.18;;;10.70;99.90;;;;;;5012744;28;20391;-73
2022/04/23 02:28:01;;;;;;;15.32;12.90;;;10.70;99.90;;;;;;5011371;28;20382;-72
2022/04/23 02:30:26;;;;;;;14.93;13.32;;;10.70;99.90;;;;;;5012520;28;20018;-73
2022/04/23 02:32:52;;;;;;;15.00;13.32;;;10.70;99.90;;;;;;5012128;28;20030;-73
2022/04/23 02:35:20;;;;;;;16.50;12.75;;;10.70;99.90;;;;;;5011596;28;20109;-73
2022/04/23 02:37:47;;;;;;;17.65;13.88;;;10.70;99.90;;;;;;5012457;28;20029;-72
2022/04/23 02:40:14;;;;;;;15.07;13.27;;;10.70;99.90;;;;;;5012575;28;20088;-73
2022/04/23 02:42:40;;;;;;;15.35;13.45;;;10.60;99.90;;;;;;5011806;28;20456;-73
2022/04/23 02:45:07;;;;;;;15.90;13.50;;;10.60;99.90;;;;;;5012092;28;20061;-73
2022/04/23 02:47:41;;;;;;;18.90;15.15;;;10.60;99.90;;;;;;5012205;28;20026;-73
2022/04/23 02:50:09;;;;;;;16.70;14.90;;;10.50;99.90;;;;;;5011110;28;20433;-73
2022/04/23 02:52:35;;;;;;;17.13;14.00;;;10.60;99.90;;;;;;5012264;28;20041;-72
2022/04/23 02:55:01;;;;;;;17.77;14.70;;;10.50;99.90;;;;;;5012501;28;20046;-73
2022/04/23 02:57:26;;;;;;;17.63;15.25;;;10.50;99.90;;;;;;5011920;28;20463;-72
2022/04/23 02:59:52;;;;;;;16.90;14.70;;;10.50;99.90;;;;;;5011936;28;20075;-73
2022/04/23 03:02:17;;;;;;;22.05;16.33;;;10.50;99.90;;;;;;5011416;28;20376;-73
2022/04/23 03:04:43;;;;;;;17.13;14.40;;;10.60;99.90;;;;;;5012350;28;20038;-73
2022/04/23 03:07:10;;;;;;;18.70;15.45;;;10.60;99.90;;;;;;5011941;28;20026;-73
2022/04/23 03:09:36;;;;;;;17.20;14.90;;;10.60;99.90;;;;;;5011487;28;20042;-73
2022/04/23 03:12:02;;;;;;;21.45;16.67;;;10.50;99.90;;;;;;5011896;28;20370;-73
2022/04/23 03:14:27;;;;;;;18.90;16.33;;;10.50;99.90;;;;;;5012023;28;20048;-73
2022/04/23 03:16:53;;;;;;;22.08;15.27;;;10.60;99.90;;;;;;5010953;28;20022;-73
2022/04/23 03:19:18;;;;;;;20.52;16.15;;;10.60;99.90;;;;;;5012366;28;20030;-72
2022/04/23 03:21:44;;;;;;;23.20;17.05;;;10.70;99.90;;;;;;5012259;28;20026;-73
2022/04/23 03:24:10;;;;;;;19.85;15.15;;;10.70;99.90;;;;;;5012170;28;20018;-73
2022/04/23 03:26:35;;;;;;;21.27;16.15;;;10.70;99.90;;;;;;5015506;28;20026;-72
2022/04/23 03:29:02;;;;;;;18.63;16.25;;;10.70;99.90;;;;;;5015210;28;20033;-72
2022/04/23 03:31:28;;;;;;;24.05;16.45;;;10.70;99.90;;;;;;5014891;28;20087;-73
2022/04/23 03:33:54;;;;;;;18.65;15.80;;;10.70;99.90;;;;;;5015411;28;20036;-72
2022/04/23 03:36:19;;;;;;;22.27;17.33;;;10.60;99.90;;;;;;5015652;28;20021;-73
2022/04/23 03:38:45;;;;;;;20.17;16.50;;;10.60;99.90;;;;;;5014888;28;20076;-72
2022/04/23 03:41:10;;;;;;;19.55;15.57;;;11.40;99.90;;;;;;5015145;28;20014;-72
2022/04/23 03:43:36;;;;;;;19.52;15.90;;;10.50;99.90;;;;;;5015326;28;20108;-73
2022/04/23 03:46:02;;;;;;;22.05;17.73;;;10.40;99.90;;;;;;5014126;28;20029;-72
2022/04/23 03:48:27;;;;;;;21.65;16.42;;;10.40;99.90;;;;;;5018993;28;20034;-73
2022/04/23 03:50:53;;;;;;;22.25;17.48;;;10.50;99.90;;;;;;5015841;28;20026;-73
2022/04/23 03:53:18;;;;;;;18.33;16.00;;;10.50;99.90;;;;;;5014364;28;20041;-72
2022/04/23 03:55:44;;;;;;;21.08;18.10;;;10.40;99.90;;;;;;5015002;28;20054;-73
2022/04/23 03:58:09;;;;;;;23.55;17.67;;;10.40;99.90;;;;;;5014729;28;20032;-73
2022/04/23 04:00:35;;;;;;;22.58;18.30;;;10.30;99.90;;;;;;5014094;28;20071;-73
2022/04/23 04:03:00;;;;;;;26.63;18.33;;;10.30;99.90;;;;;;5014526;28;20136;-73
2022/04/23 04:05:27;;;;;;;24.83;18.48;;;10.30;99.90;;;;;;5014880;28;20022;-73
2022/04/23 04:07:53;;;;;;;29.95;19.65;;;10.30;99.90;;;;;;5014447;28;20065;-73
2022/04/23 04:10:23;;;;;;;23.38;19.98;;;10.30;99.90;;;;;;5014818;28;20061;-74
2022/04/23 04:12:49;;;;;;;22.10;18.73;;;10.30;99.90;;;;;;5013697;28;20022;-73
2022/04/23 04:15:16;;;;;;;23.00;18.20;;;10.40;99.90;;;;;;5014544;28;20108;-73
2022/04/23 04:17:43;;;;;;;27.00;19.13;;;10.30;99.90;;;;;;5014747;28;20088;-73
2022/04/23 04:20:13;;;;;;;21.90;18.42;;;10.40;99.90;;;;;;5013379;28;20026;-73
2022/04/23 04:22:39;;;;;;;28.77;20.67;;;10.40;99.90;;;;;;5014565;28;20022;-72
2022/04/23 04:25:07;;;;;;;27.08;20.00;;;10.30;99.90;;;;;;5014138;28;20036;-72
2022/04/23 04:27:33;;;;;;;24.80;19.40;;;10.30;99.90;;;;;;5013552;28;20478;-72
2022/04/23 04:30:00;;;;;;;25.98;19.48;;;10.30;99.90;;;;;;5013949;28;20049;-72
2022/04/23 04:32:26;;;;;;;24.85;20.25;;;10.30;99.90;;;;;;5014385;28;20042;-72
2022/04/23 04:34:52;;;;;;;25.52;20.83;;;10.30;99.90;;;;;;5013236;28;20033;-72
2022/04/23 04:37:17;;;;;;;26.65;21.25;;;10.30;99.90;;;;;;5013467;28;20022;-72
2022/04/23 04:39:43;;;;;;;22.85;19.02;;;10.30;99.90;;;;;;5014180;28;20048;-72
2022/04/23 04:42:11;;;;;;;26.73;20.00;;;10.30;99.90;;;;;;5013220;28;20018;-72
2022/04/23 04:44:38;;;;;;;23.60;18.98;;;10.30;99.90;;;;;;5014268;28;20029;-72
2022/04/23 04:47:05;;;;;;;26.05;20.10;;;10.30;99.90;;;;;;5014249;28;20095;-72
2022/04/23 04:49:30;;;;;;;26.33;20.17;;;10.20;99.90;;;;;;5013219;28;20041;-72
2022/04/23 04:51:56;;;;;;;28.08;20.63;;;10.30;99.90;;;;;;5013847;28;20034;-72
2022/04/23 04:54:22;;;;;;;30.42;21.55;;;10.20;99.90;;;;;;5014210;28;20026;-72
2022/04/23 04:56:52;;;;;;;26.00;20.45;;;10.30;99.90;;;;;;5012795;28;20479;-72
2022/04/23 04:59:20;;;;;;;24.57;20.20;;;10.30;99.90;;;;;;5014050;28;20026;-72
2022/04/23 05:01:46;;;;;;;28.00;22.30;;;10.30;99.90;;;;;;5013235;28;20391;-72
2022/04/23 05:04:12;;;;;;;26.52;21.77;;;10.30;99.90;;;;;;5013741;28;20030;-72
2022/04/23 05:06:37;;;;;;;27.00;21.65;;;10.40;99.90;;;;;;5013748;28;20374;-72
2022/04/23 05:09:03;;;;;;;26.45;19.73;;;10.30;99.90;;;;;;5013177;28;20529;-72
2022/04/23 05:11:29;;;;;;;24.40;20.83;;;10.30;99.90;;;;;;5013740;28;20022;-72
2022/04/23 05:14:00;;;;;;;29.83;21.83;;;10.40;99.90;;;;;;5013786;28;20109;-72
2022/04/23 05:16:26;;;;;;;25.83;20.92;;;10.40;99.90;;;;;;5012857;28;20164;-71
2022/04/23 05:18:51;;;;;;;30.60;20.42;;;10.40;99.90;;;;;;5013518;28;20109;-72
2022/04/23 05:21:17;;;;;;;24.45;20.10;;;10.40;99.90;;;;;;5016460;28;20029;-73
2022/04/23 05:23:42;;;;;;;26.63;20.60;;;10.50;99.90;;;;;;5012791;28;20022;-73
2022/04/23 05:26:09;;;;;;;25.85;20.33;;;10.50;99.90;;;;;;5013066;28;20026;-73
2022/04/23 05:28:35;;;;;;;28.35;21.80;;;10.50;99.90;;;;;;5013509;28;20040;-73
2022/04/23 05:31:01;;;;;;;27.15;21.55;;;10.60;99.90;;;;;;5012479;28;20021;-73
2022/04/23 05:33:27;;;;;;;29.27;22.05;;;10.70;99.90;;;;;;5013281;28;20036;-73
2022/04/23 05:35:52;;;;;;;25.80;21.65;;;10.60;99.90;;;;;;5013374;28;20105;-73
2022/04/23 05:38:20;;;;;;;26.58;23.25;;;10.70;99.90;;;;;;5012464;28;20072;-73
2022/04/23 05:40:46;;;;;;;26.92;21.88;;;10.70;99.90;;;;;;5013435;28;20026;-72
2022/04/23 05:43:15;;;;;;;28.83;20.98;;;10.80;99.90;;;;;;5012936;28;20026;-73
2022/04/23 05:45:42;;;;;;;26.70;21.98;;;10.80;99.90;;;;;;5012552;28;20133;-73
2022/04/23 05:48:08;;;;;;;29.90;21.15;;;10.80;99.90;;;;;;5012450;28;20041;-74
2022/04/23 05:50:33;;;;;;;29.38;22.98;;;10.80;99.90;;;;;;5013099;28;20026;-72
2022/04/23 05:52:59;;;;;;;28.50;22.65;;;10.90;99.90;;;;;;5011839;28;20081;-73
2022/04/23 05:55:24;;;;;;;24.02;21.25;;;10.90;99.90;;;;;;5012705;28;20049;-73
2022/04/23 05:57:50;;;;;;;29.63;23.55;;;11.00;99.90;;;;;;5012606;28;20044;-73
2022/04/23 06:00:16;;;;;;;24.85;21.17;;;11.00;99.90;;;;;;5012136;28;20045;-72
2022/04/23 06:02:41;;;;;;;28.15;21.95;;;11.10;99.90;;;;;;5012658;28;20033;-72
2022/04/23 06:05:07;;;;;;;27.70;21.30;;;11.10;99.90;;;;;;5011755;28;20025;-72
2022/04/23 06:07:33;;;;;;;26.23;22.13;;;11.20;99.90;;;;;;5012540;28;20029;-72
2022/04/23 06:09:59;;;;;;;26.15;20.15;;;11.20;99.90;;;;;;5012048;28;20386;-73
2022/04/23 06:12:25;;;;;;;29.20;21.30;;;11.20;99.90;;;;;;5011919;28;20488;-72
2022/04/23 06:14:51;;;;;;;28.08;21.67;;;11.20;99.90;;;;;;5012276;28;20103;-72
2022/04/23 06:17:23;;;;;;;27.98;22.20;;;11.20;99.90;;;;;;5012472;28;20026;-72
2022/04/23 06:19:49;;;;;;;27.83;22.55;;;11.30;99.90;;;;;;5011450;28;20022;-72
2022/04/23 06:22:15;;;;;;;26.50;21.45;;;11.30;99.90;;;;;;5012257;28;20034;-73
2022/04/23 06:24:41;;;;;;;27.13;21.73;;;11.40;99.90;;;;;;5012438;28;20486;-72
2022/04/23 06:27:06;;;;;;;23.38;20.85;;;11.40;99.90;;;;;;5011388;28;20034;-72
2022/04/23 06:29:36;;;;;;;24.33;20.02;;;11.50;99.90;;;;;;5012289;28;20096;-72
2022/04/23 06:32:02;;;;;;;28.07;22.60;;;11.50;99.90;;;;;;5012134;28;20115;-72
2022/04/23 06:34:28;;;;;;;28.23;21.58;;;11.60;99.90;;;;;;5011386;28;20493;-72
2022/04/23 06:36:53;;;;;;;26.75;22.02;;;11.60;99.90;;;;;;5011900;28;20053;-73
2022/04/23 06:39:19;;;;;;;27.35;22.33;;;11.70;99.90;;;;;;5012229;28;20030;-72
2022/04/23 06:41:44;;;;;;;25.17;21.30;;;11.70;99.90;;;;;;5011711;28;20052;-73
2022/04/23 06:44:10;;;;;;;27.58;22.55;;;11.80;99.90;;;;;;5011999;28;20038;-72
2022/04/23 06:46:36;;;;;;;28.80;21.77;;;11.90;99.90;;;;;;5012082;28;20022;-72
2022/04/23 06:49:05;;;;;;;23.85;20.90;;;12.00;99.90;;;;;;5011065;28;20383;-72
2022/04/23 06:51:37;;;;;;;28.42;22.55;;;12.00;99.90;;;;;;5012061;28;20034;-73
2022/04/23 06:54:03;;;;;;;30.27;23.33;;;12.00;99.90;;;;;;5012561;28;20034;-73
2022/04/23 06:56:28;;;;;;;29.10;22.60;;;12.00;99.90;;;;;;5011236;28;20042;-73
2022/04/23 06:58:54;;;;;;;22.73;19.77;;;12.00;99.90;;;;;;5012714;28;20030;-73
2022/04/23 07:01:19;;;;;;;23.70;21.13;;;12.00;99.90;;;;;;5015388;28;20017;-72
2022/04/23 07:03:45;;;;;;;26.27;21.17;;;12.10;99.90;;;;;;5015988;28;20064;-72
2022/04/23 07:06:11;;;;;;;25.42;20.17;;;12.20;99.90;;;;;;5015697;28;20022;-72
2022/04/23 07:08:39;;;;;;;22.80;20.08;;;12.30;99.90;;;;;;5015259;28;20111;-74
2022/04/23 07:11:05;;;;;;;23.42;20.35;;;12.40;99.90;;;;;;5015684;28;20133;-72
2022/04/23 07:13:30;;;;;;;24.17;19.67;;;12.40;99.90;;;;;;5016030;28;20526;-73
2022/04/23 07:15:56;;;;;;;24.67;21.13;;;12.40;99.90;;;;;;5014960;28;20033;-73
2022/04/23 07:18:21;;;;;;;25.17;21.52;;;12.50;99.90;;;;;;5015616;28;20026;-72
2022/04/23 07:20:47;;;;;;;26.10;20.65;;;12.60;99.90;;;;;;5015578;28;20032;-72
2022/04/23 07:25:57;;;;;;;23.13;20.30;;;12.60;99.90;;;;;;5015287;28;20049;-72
2022/04/23 07:28:22;;;;;;;20.98;18.77;;;12.70;99.90;;;;;;5015360;28;20026;-73
2022/04/23 07:30:48;;;;;;;21.98;19.40;;;12.70;99.90;;;;;;5015123;28;20108;-72
2022/04/23 07:37:28;;;;;;;23.08;20.42;;;12.70;99.90;;;;;;5015894;28;20078;-72
2022/04/23 07:38:43;;;;;;;23.23;19.92;;;12.90;99.90;;;;;;5014847;28;20033;-73
2022/04/23 07:41:09;;;;;;;29.30;19.63;;;12.90;99.90;;;;;;5015058;28;20022;-73
2022/04/23 07:43:35;;;;;;;23.73;18.73;;;13.00;99.90;;;;;;5014394;28;20506;-72
2022/04/23 07:46:00;;;;;;;22.50;19.52;;;13.00;99.90;;;;;;5015166;28;20105;-73
2022/04/23 07:48:26;;;;;;;24.10;21.35;;;13.10;99.90;;;;;;5015041;28;20136;-72
2022/04/23 07:50:52;;;;;;;24.17;19.40;;;13.20;99.90;;;;;;5014025;28;20313;-73
2022/04/23 07:53:20;;;;;;;21.92;18.80;;;13.20;99.90;;;;;;5015169;28;20064;-73
2022/04/23 07:55:46;;;;;;;22.73;19.73;;;13.30;99.90;;;;;;5014766;28;20465;-71
2022/04/23 07:58:12;;;;;;;21.50;19.30;;;13.40;99.90;;;;;;5014012;28;20026;-73
2022/04/23 08:00:38;;;;;;;22.88;20.48;;;13.50;99.90;;;;;;5014893;28;20382;-74
2022/04/23 08:03:08;;;;;;;23.90;21.20;;;13.50;99.90;;;;;;5014543;28;20482;-72
2022/04/23 08:05:34;;;;;;;23.17;19.70;;;13.60;99.90;;;;;;5014320;28;20033;-73
2022/04/23 08:08:00;;;;;;;22.42;20.05;;;13.60;99.90;;;;;;5014450;28;20030;-72
2022/04/23 08:10:26;;;;;;;21.48;19.23;;;13.70;99.90;;;;;;5013345;28;20042;-73
2022/04/23 08:12:54;;;;;;;21.50;18.90;;;13.70;99.90;;;;;;5013710;28;20103;-73
2022/04/23 08:15:20;;;;;;;25.30;19.85;;;13.70;99.90;;;;;;5015096;28;20034;-73
2022/04/23 08:17:54;;;;;;;21.48;19.02;;;13.80;99.90;;;;;;5014687;28;20470;-74
2022/04/23 08:20:20;;;;;;;22.42;19.77;;;13.90;99.90;;;;;;5014078;28;20065;-72
2022/04/23 08:22:46;;;;;;;20.50;18.15;;;13.90;99.90;;;;;;5014746;28;20045;-72
2022/04/23 08:25:11;;;;;;;19.95;17.77;;;14.00;99.90;;;;;;5016045;28;20030;-73
2022/04/23 08:27:55;;;;;;;22.88;18.65;;;14.00;99.90;;;;;;5014022;28;20033;-73
2022/04/23 08:30:34;;;;;;;21.23;18.90;;;14.10;99.90;;;;;;5014625;28;20038;-73
2022/04/23 08:33:03;;;;;;;18.85;16.98;;;14.10;99.90;;;;;;5013513;28;20018;-72
2022/04/23 08:35:28;;;;;;;20.33;18.02;;;14.20;99.90;;;;;;5014262;28;20068;-72
2022/04/23 08:37:54;;;;;;;21.23;18.92;;;14.20;99.90;;;;;;5014233;28;20045;-72
2022/04/23 08:40:20;;;;;;;19.70;17.65;;;14.30;99.90;;;;;;5013614;28;20109;-72
2022/04/23 08:42:46;;;;;;;20.75;18.55;;;15.40;99.90;;;;;;5014298;28;20109;-72
2022/04/23 08:45:12;;;;;;;20.88;17.95;;;14.40;99.90;;;;;;5014292;28;20046;-73
2022/04/23 08:47:44;;;;;;;20.48;18.35;;;14.60;99.90;;;;;;5013518;28;20022;-73
2022/04/23 08:50:10;;;;;;;20.38;17.48;;;14.60;99.90;;;;;;5013960;28;20048;-72
2022/04/23 08:52:37;;;;;;;19.25;17.35;;;14.60;99.90;;;;;;5014147;28;20029;-72
2022/04/23 08:55:06;;;;;;;20.73;17.95;;;14.60;99.90;;;;;;5012933;28;20053;-73
2022/04/23 08:57:32;;;;;;;21.65;17.75;;;14.70;99.90;;;;;;5013971;28;20026;-73
2022/04/23 08:59:59;;;;;;;21.63;18.42;;;14.70;99.90;;;;;;5013730;28;20084;-73
2022/04/23 09:02:26;;;;;;;19.45;16.80;;;14.80;99.90;;;;;;5013430;28;20088;-73
2022/04/23 09:04:54;;;;;;;18.55;16.67;;;14.80;99.90;;;;;;5014606;28;20026;-73
2022/04/23 09:07:22;;;;;;;20.00;17.70;;;14.90;99.90;;;;;;5014026;28;20037;-73
2022/04/23 09:09:52;;;;;;;20.55;18.35;;;14.90;99.90;;;;;;5012672;28;20474;-72
2022/04/23 09:12:19;;;;;;;21.83;17.90;;;15.00;99.90;;;;;;5013903;28;20038;-72
2022/04/23 09:14:45;;;;;;;20.08;17.67;;;15.10;99.90;;;;;;5014138;28;20115;-73
2022/04/23 09:25:37;;;;;;;21.15;16.50;;;15.60;99.90;;;;;;5013649;28;20048;-72
2022/04/23 09:28:23;;;;;;;20.85;17.67;;;15.80;99.90;;;;;;5013353;28;20025;-73
2022/04/23 09:30:50;;;;;;;21.50;18.80;;;16.10;99.90;;;;;;5012453;28;20093;-72
2022/04/23 09:33:17;;;;;;;23.65;20.13;;;16.30;99.90;;;;;;5013298;28;20080;-72
2022/04/23 09:35:57;;;;;;;20.38;18.05;;;16.50;99.90;;;;;;5013318;28;20033;-72
2022/04/23 09:38:24;;;;;;;22.90;17.17;;;16.70;99.90;;;;;;5012567;28;20053;-72
2022/04/23 09:40:50;;;;;;;18.80;16.85;;;16.80;99.30;;;;;;5013045;28;20371;-72
2022/04/23 09:43:28;;;;;;;18.42;16.58;;;16.90;98.90;;;;;;5012454;28;20601;-73
2022/04/23 09:46:03;;;;;;;22.83;18.17;;;17.00;98.60;;;;;;5012946;28;20073;-73
2022/04/23 09:48:29;;;;;;;19.45;17.67;;;16.90;98.50;;;;;;5013257;28;20141;-73
2022/04/23 09:50:56;;;;;;;20.70;18.15;;;17.00;98.90;;;;;;5012242;28;20163;-73
2022/04/23 09:53:27;;;;;;;21.02;18.48;;;17.20;98.60;;;;;;5013128;28;20026;-73
2022/04/23 09:55:59;;;;;;;22.60;18.45;;;17.30;98.10;;;;;;5012739;28;20058;-73
2022/04/23 09:58:27;;;;;;;25.05;18.10;;;17.30;98.30;;;;;;5012304;28;20030;-73
2022/04/23 10:00:53;;;;;;;19.92;18.02;;;17.50;97.90;;;;;;5012521;28;20034;-73
2022/04/23 10:03:23;;;;;;;22.08;19.67;;;17.60;98.00;;;;;;5011515;28;20171;-73
2022/04/23 10:05:49;;;;;;;20.73;18.17;;;17.60;97.90;;;;;;5011610;28;20123;-74
2022/04/23 10:08:24;;;;;;;22.45;18.45;;;17.70;97.70;;;;;;5012811;28;20382;-72
2022/04/23 10:11:24;;;;;;;24.00;19.02;;;17.70;97.40;;;;;;5012475;28;20037;-74
2022/04/23 10:13:56;;;;;;;24.50;19.15;;;17.70;97.50;;;;;;5013179;28;20040;-73
2022/04/23 10:16:22;;;;;;;20.92;18.70;;;17.60;97.30;;;;;;5012520;28;20043;-73
2022/04/23 10:18:48;;;;;;;24.58;20.17;;;17.70;97.60;;;;;;5011584;28;20116;-73
2022/04/23 10:21:30;;;;;;;22.10;19.75;;;17.90;97.00;;;;;;5012503;28;20029;-73
2022/04/23 10:24:23;;;;;;;22.95;20.55;;;17.90;96.70;;;;;;5012135;28;20103;-73
2022/04/23 10:26:50;;;;;;;27.27;20.00;;;17.80;96.90;;;;;;5011583;28;20109;-73
2022/04/23 10:29:20;;;;;;;23.38;20.48;;;17.70;97.10;;;;;;5012458;28;20042;-73
2022/04/23 10:32:08;;;;;;;23.05;19.90;;;17.60;96.90;;;;;;5012335;28;20103;-73
2022/04/23 10:34:34;;;;;;;22.52;19.38;;;17.60;96.70;;;;;;5010780;28;20037;-73
2022/04/23 10:37:16;;;;;;;20.65;18.60;;;17.60;97.00;;;;;;5011954;28;20034;-73
2022/04/23 10:39:44;;;;;;;23.40;20.85;;;17.70;96.60;;;;;;5011630;28;20030;-72
2022/04/23 10:42:14;;;;;;;23.80;19.50;;;17.80;96.40;;;;;;5012148;28;20459;-72
2022/04/23 10:44:42;;;;;;;23.00;18.90;;;18.00;96.50;;;;;;5012054;28;20026;-72
2022/04/23 10:47:39;;;;;;;25.60;19.65;;;18.10;96.30;;;;;;5011490;28;20038;-73
2022/04/23 10:52:39;;;;;;;24.35;20.08;;;18.30;95.60;;;;;;5012161;28;20033;-73
2022/04/23 10:55:05;;;;;;;19.75;17.75;;;18.40;95.60;;;;;;5010917;28;20053;-71
2022/04/23 10:57:30;;;;;;;20.58;18.40;;;18.30;95.50;;;;;;5012461;28;20034;-72
2022/04/23 11:00:12;;;;;;;20.45;18.25;;;18.40;95.60;;;;;;5012281;28;20106;-73
2022/04/23 11:02:39;;;;;;;23.60;19.73;;;18.50;95.40;;;;;;5012115;28;20065;-73
2022/04/23 11:13:59;;;;;;;22.55;20.08;;;19.00;94.80;;;;;;5011660;28;20037;-73
2022/04/23 11:16:29;;;;;;;22.67;18.92;;;18.90;94.00;;;;;;5011578;28;20061;-73
2022/04/23 11:19:01;;;;;;;21.10;18.88;;;18.60;94.30;;;;;;5011768;28;20536;-73
2022/04/23 11:21:28;;;;;;;21.67;18.45;;;18.40;94.70;;;;;;5012048;28;20121;-72
2022/04/23 11:23:56;;;;;;;34.08;19.75;;;18.30;95.00;;;;;;5010990;28;20026;-72
2022/04/23 11:26:38;;;;;;;22.92;20.23;;;18.20;94.90;;;;;;5011995;28;20026;-73
2022/04/23 11:29:07;;;;;;;25.27;20.50;;;18.10;95.30;;;;;;5011122;28;20069;-74
2022/04/23 11:31:33;;;;;;;24.58;20.33;;;18.20;95.40;;;;;;5011851;28;20042;-72
2022/04/23 11:34:00;;;;;;;23.55;21.05;;;18.20;95.00;;;;;;5011658;28;20079;-72
2022/04/23 11:36:33;;;;;;;25.00;20.77;;;18.20;94.90;;;;;;5011051;28;20033;-72
2022/04/23 11:39:03;;;;;;;23.95;19.33;;;18.20;95.00;;;;;;5011624;28;20108;-74
2022/04/23 11:41:38;;;;;;;22.92;20.48;;;18.20;95.10;;;;;;5011817;28;20071;-72
2022/04/23 11:44:17;;;;;;;24.95;22.30;;;18.20;94.90;;;;;;5010953;28;20065;-73
2022/04/23 11:46:47;;;;;;;24.92;20.38;;;18.30;94.80;;;;;;5015182;28;20053;-73
2022/04/23 11:49:26;;;;;;;32.60;25.17;;;18.50;94.90;;;;;;5015087;28;20120;-73
2022/04/23 11:52:03;;;;;;;27.60;22.50;;;18.40;94.30;;;;;;5014435;28;20034;-74
2022/04/23 11:54:37;;;;;;;26.55;21.95;;;18.40;94.20;;;;;;5015227;28;20122;-73
2022/04/23 11:57:05;;;;;;;24.50;21.90;;;18.40;94.30;;;;;;5014118;28;20172;-73
2022/04/23 11:59:41;;;;;;;21.52;19.17;;;18.60;94.40;;;;;;5014966;28;20030;-73
2022/04/23 12:02:21;;;;;;;26.25;21.88;;;18.70;94.40;;;;;;5015034;28;20041;-74
2022/04/23 12:04:50;;;;;;;30.02;23.67;;;18.80;94.60;;;;;;5013505;28;20045;-73
2022/04/23 12:07:20;;;;;;;32.20;24.98;;;18.80;93.90;;;;;;5014918;28;20473;-72
2022/04/23 12:09:58;;;;;;;32.47;23.35;;;18.70;93.80;;;;;;5014762;28;20133;-73
2022/04/23 12:12:26;;;;;;;27.55;21.80;;;18.70;94.00;;;;;;5014079;28;20033;-72
2022/04/23 12:14:54;;;;;;;27.88;22.38;;;18.70;93.80;;;;;;5014432;28;20065;-74
2022/04/23 12:17:23;;;;;;;27.80;20.63;;;18.70;93.70;;;;;;5014927;28;20026;-73
2022/04/23 12:19:50;;;;;;;23.63;20.42;;;18.80;93.60;;;;;;5013756;28;20046;-73
2022/04/23 12:22:30;;;;;;;34.97;24.25;;;18.90;93.80;;;;;;5014719;28;20108;-73
2022/04/23 12:25:19;;;;;;;30.70;24.65;;;19.00;93.90;;;;;;5013567;28;20030;-73
2022/04/23 12:28:03;;;;;;;29.60;24.17;;;19.20;93.60;;;;;;5014765;28;20100;-73
2022/04/23 12:42:11;;;;;;;23.02;19.70;;;19.70;92.70;;;;;;5014243;28;20100;-73
2022/04/23 12:44:42;;;;;;;24.30;19.90;;;19.90;91.90;;;;;;5014348;28;20030;-73
2022/04/23 12:47:17;;;;;;;21.05;18.75;;;20.00;91.80;;;;;;5013199;28;20080;-73
2022/04/23 12:49:50;;;;;;;25.20;18.98;;;20.00;91.20;;;;;;5014154;28;20042;-73
2022/04/23 12:52:21;;;;;;;23.27;19.23;;;20.00;91.30;;;;;;5014334;28;20026;-71
2022/04/23 12:55:12;;;;;;;22.75;18.38;;;20.10;91.10;;;;;;5013393;28;20470;-72
2022/04/23 12:57:44;;;;;;;19.58;17.50;;;20.10;90.90;;;;;;5013819;28;20032;-71
2022/04/23 13:00:12;;;;;;;25.17;18.45;;;20.30;90.60;;;;;;5013198;28;20026;-71
2022/04/23 13:02:40;;;;;;;20.73;18.50;;;20.30;90.60;;;;;;5014014;28;20028;-74
2022/04/23 13:05:08;;;;;;;23.92;19.10;;;20.40;90.30;;;;;;5013445;28;20117;-73
2022/04/23 13:10:22;;;;;;;23.25;19.70;;;20.60;90.10;;;;;;5014010;28;20041;-74
2022/04/23 13:12:48;;;;;;;21.83;18.98;;;20.70;89.70;;;;;;5013449;28;20084;-73